createdAt,value
2022-11-25T00:01:21.075Z,25.77
2022-11-25T00:03:49.565Z,24.27
2022-11-25T00:06:25.573Z,25.42
2022-11-25T00:08:56.516Z,21.15
2022-11-25T00:11:23.758Z,23.40
2022-11-25T00:13:51.955Z,18.90
2022-11-25T00:16:21.688Z,19.45
2022-11-25T00:18:51.337Z,27.63
2022-11-25T00:21:21.174Z,21.30
2022-11-25T00:23:57.166Z,24.98
2022-11-25T00:26:25.993Z,22.75
2022-11-25T00:28:53.976Z,28.15
2022-11-25T00:31:26.625Z,22.13
2022-11-25T00:33:54.417Z,20.17
2022-11-25T00:36:29.814Z,23.35
2022-11-25T00:38:59.788Z,22.00
2022-11-25T00:41:46.807Z,27.05
2022-11-25T00:44:35.474Z,19.95
2022-11-25T00:47:05.386Z,21.88
2022-11-25T00:49:33.197Z,19.13
2022-11-25T00:52:00.457Z,17.27
2022-11-25T00:54:28.545Z,25.25
2022-11-25T00:56:56.503Z,24.88
2022-11-25T00:59:23.835Z,23.67
2022-11-25T01:01:51.385Z,28.00
2022-11-25T01:04:18.543Z,27.23
2022-11-25T01:06:46.015Z,29.17
2022-11-25T01:09:15.844Z,28.02
2022-11-25T01:11:43.247Z,20.05
2022-11-25T01:14:10.435Z,27.67
2022-11-25T01:16:37.840Z,24.75
2022-11-25T01:19:07.845Z,28.33
2022-11-25T01:21:35.718Z,27.75
2022-11-25T01:24:06.735Z,23.63
2022-11-25T01:26:35.676Z,26.35
2022-11-25T01:29:05.636Z,28.95
2022-11-25T01:31:36.570Z,25.73
2022-11-25T01:34:07.000Z,29.67
2022-11-25T01:36:35.906Z,30.02
2022-11-25T01:39:03.846Z,24.55
2022-11-25T01:41:33.165Z,25.10
2022-11-25T01:44:17.047Z,23.10
2022-11-25T01:46:58.607Z,21.55
2022-11-25T01:49:28.987Z,22.10
2022-11-25T01:52:24.653Z,24.15
2022-11-25T01:55:00.814Z,26.27
2022-11-25T01:57:42.795Z,19.60
2022-11-25T02:00:10.937Z,23.83
2022-11-25T02:02:49.698Z,16.95
2022-11-25T02:05:20.415Z,18.15
2022-11-25T02:07:51.416Z,24.77
2022-11-25T02:10:26.947Z,23.65
2022-11-25T02:12:54.585Z,17.67
2022-11-25T02:15:22.304Z,16.80
2022-11-25T02:17:49.677Z,20.33
2022-11-25T02:20:19.624Z,12.00
2022-11-25T02:22:58.774Z,17.88
2022-11-25T02:25:28.422Z,23.33
2022-11-25T02:28:18.125Z,29.70
2022-11-25T02:30:46.255Z,16.83
2022-11-25T02:33:14.615Z,21.98
2022-11-25T02:35:50.184Z,22.33
2022-11-25T02:38:24.926Z,18.02
2022-11-25T02:40:57.575Z,17.73
2022-11-25T02:43:25.845Z,20.77
2022-11-25T02:46:21.614Z,11.75
2022-11-25T02:49:08.336Z,14.18
2022-11-25T02:51:36.890Z,22.25
2022-11-25T02:54:04.392Z,11.82
2022-11-25T02:56:34.475Z,18.35
2022-11-25T02:59:02.257Z,19.50
2022-11-25T03:01:31.775Z,29.05
2022-11-25T03:03:59.843Z,20.10
2022-11-25T03:06:29.158Z,15.35
2022-11-25T03:08:56.915Z,21.75
2022-11-25T03:11:45.066Z,19.38
2022-11-25T03:14:13.005Z,20.90
2022-11-25T03:16:40.450Z,16.25
2022-11-25T03:19:08.706Z,21.65
2022-11-25T03:21:35.971Z,28.13
2022-11-25T03:24:03.510Z,17.58
2022-11-25T03:26:30.715Z,23.35
2022-11-25T03:28:57.966Z,30.05
2022-11-25T03:31:25.319Z,18.27
2022-11-25T03:33:52.778Z,23.48
2022-11-25T03:36:21.553Z,33.45
2022-11-25T03:38:48.844Z,28.27
2022-11-25T03:41:16.034Z,26.20
2022-11-25T03:43:43.275Z,26.45
2022-11-25T03:46:10.540Z,32.92
2022-11-25T03:48:38.025Z,25.83
2022-11-25T03:51:05.735Z,28.73
2022-11-25T03:53:33.889Z,20.27
2022-11-25T03:56:03.575Z,23.15
2022-11-25T03:58:30.815Z,20.05
2022-11-25T04:01:03.058Z,25.10
2022-11-25T04:03:30.970Z,20.50
2022-11-25T04:05:58.166Z,21.98
2022-11-25T04:08:25.456Z,21.13
2022-11-25T04:10:52.937Z,17.70
2022-11-25T04:13:24.267Z,18.23
2022-11-25T04:15:53.357Z,16.33
2022-11-25T04:18:21.690Z,21.42
2022-11-25T04:20:52.604Z,14.48
2022-11-25T04:23:20.096Z,15.68
2022-11-25T04:25:56.196Z,12.38
2022-11-25T04:28:30.443Z,16.02
2022-11-25T04:30:58.105Z,16.40
2022-11-25T04:33:25.505Z,18.63
2022-11-25T04:35:53.456Z,18.02
2022-11-25T04:38:21.245Z,19.05
2022-11-25T04:40:49.447Z,26.90
2022-11-25T04:43:20.047Z,20.08
2022-11-25T04:46:13.591Z,17.15
2022-11-25T04:48:42.476Z,13.50
2022-11-25T04:51:10.017Z,11.95
2022-11-25T04:53:37.304Z,13.43
2022-11-25T04:56:05.244Z,10.15
2022-11-25T04:58:58.645Z,13.73
2022-11-25T05:01:26.047Z,9.18
2022-11-25T05:03:59.246Z,19.33
2022-11-25T05:06:28.185Z,14.77
2022-11-25T05:08:55.545Z,16.55
2022-11-25T05:11:25.476Z,16.73
2022-11-25T05:16:35.548Z,11.13
2022-11-25T05:19:03.565Z,12.18
2022-11-25T05:21:30.895Z,16.85
2022-11-25T05:23:58.757Z,19.98
2022-11-25T05:26:29.095Z,21.52
2022-11-25T05:28:58.916Z,21.52
2022-11-25T05:31:26.336Z,21.83
2022-11-25T05:33:54.249Z,20.98
2022-11-25T05:36:22.805Z,21.23
2022-11-25T05:38:50.226Z,16.92
2022-11-25T05:41:29.769Z,13.15
2022-11-25T05:43:57.345Z,19.63
2022-11-25T05:46:24.655Z,14.85
2022-11-25T05:48:56.378Z,11.23
2022-11-25T05:51:25.538Z,14.90
2022-11-25T05:53:55.425Z,21.10
2022-11-25T05:56:26.464Z,14.13
2022-11-25T05:59:13.925Z,16.13
2022-11-25T06:01:53.968Z,17.73
2022-11-25T06:04:21.175Z,14.32
2022-11-25T06:06:48.469Z,16.77
2022-11-25T06:09:16.025Z,12.45
2022-11-25T06:11:43.225Z,16.00
2022-11-25T06:14:10.526Z,13.85
2022-11-25T06:16:37.711Z,16.05
2022-11-25T06:19:19.662Z,12.68
2022-11-25T06:21:48.185Z,17.90
2022-11-25T06:24:16.267Z,16.05
2022-11-25T06:26:46.047Z,15.80
2022-11-25T06:29:13.296Z,16.38
2022-11-25T06:31:44.982Z,17.55
2022-11-25T06:34:32.521Z,10.05
2022-11-25T06:37:01.075Z,10.20
2022-11-25T06:39:28.215Z,15.02
2022-11-25T06:41:55.452Z,13.52
2022-11-25T06:44:22.586Z,10.15
2022-11-25T06:46:49.812Z,9.98
2022-11-25T06:49:17.100Z,12.85
2022-11-25T06:51:44.249Z,15.75
2022-11-25T06:54:11.370Z,12.55
2022-11-25T06:56:39.946Z,17.70
2022-11-25T06:59:07.446Z,21.00
2022-11-25T07:01:35.266Z,14.50
2022-11-25T07:04:06.116Z,11.80
2022-11-25T07:06:33.897Z,12.93
2022-11-25T07:09:01.495Z,18.98
2022-11-25T07:11:31.246Z,20.02
2022-11-25T07:14:00.976Z,24.48
2022-11-25T07:16:29.318Z,17.33
2022-11-25T07:18:56.851Z,23.20
2022-11-25T07:21:25.303Z,19.30
2022-11-25T07:23:53.106Z,13.73
2022-11-25T07:26:23.128Z,16.95
2022-11-25T07:28:51.966Z,17.40
2022-11-25T07:31:24.857Z,14.32
2022-11-25T07:33:57.446Z,17.05
2022-11-25T07:36:25.565Z,23.90
2022-11-25T07:38:53.086Z,21.00
2022-11-25T07:41:23.876Z,22.98
2022-11-25T07:43:54.256Z,13.10
2022-11-25T07:46:27.037Z,17.50
2022-11-25T07:48:57.094Z,22.60
2022-11-25T07:51:30.996Z,19.92
2022-11-25T07:54:00.765Z,26.70
2022-11-25T07:56:28.836Z,22.50
2022-11-25T07:58:57.217Z,20.40
2022-11-25T08:01:24.762Z,29.13
2022-11-25T08:03:53.007Z,20.15
2022-11-25T08:06:23.178Z,28.90
2022-11-25T08:08:52.956Z,24.67
2022-11-25T08:11:25.216Z,24.70
2022-11-25T08:13:52.727Z,23.88
2022-11-25T08:16:21.735Z,18.95
2022-11-25T08:18:49.179Z,17.83
2022-11-25T08:21:17.016Z,22.58
2022-11-25T08:23:45.166Z,21.52
2022-11-25T08:26:14.997Z,19.08
2022-11-25T08:28:42.980Z,20.52
2022-11-25T08:31:25.545Z,19.73
2022-11-25T08:33:53.517Z,19.63
2022-11-25T08:36:21.636Z,24.23
2022-11-25T08:38:51.821Z,20.52
2022-11-25T08:41:28.988Z,26.65
2022-11-25T08:43:57.378Z,22.88
2022-11-25T08:46:27.722Z,24.15
2022-11-25T08:48:55.776Z,24.48
2022-11-25T08:54:08.877Z,23.40
2022-11-25T08:56:36.286Z,23.52
2022-11-25T08:59:04.484Z,19.88
2022-11-25T09:01:32.226Z,15.57
2022-11-25T09:04:08.302Z,21.13
2022-11-25T09:17:13.116Z,32.88
2022-11-25T09:24:11.165Z,20.38
2022-11-25T09:38:52.435Z,19.25
2022-11-25T10:01:37.077Z,20.08
2022-11-25T10:05:20.116Z,21.55
2022-11-25T10:32:39.467Z,17.48
2022-11-25T10:47:50.820Z,16.50
2022-11-25T11:05:34.217Z,11.57
2022-11-25T11:08:15.630Z,11.25
2022-11-25T11:10:43.714Z,17.65
2022-11-25T11:13:33.400Z,11.23
2022-11-25T11:16:00.994Z,11.10
2022-11-25T11:18:42.092Z,8.45
2022-11-25T11:21:23.611Z,14.35
2022-11-25T11:23:57.348Z,12.70
2022-11-25T11:29:04.343Z,8.85
2022-11-25T11:31:36.649Z,10.82
2022-11-25T11:34:44.631Z,10.85
2022-11-25T11:37:30.919Z,14.77
2022-11-25T11:40:16.894Z,13.30
2022-11-25T11:43:16.340Z,10.75
2022-11-25T11:46:17.479Z,12.13
2022-11-25T11:48:56.258Z,15.90
2022-11-25T11:51:28.731Z,12.98
2022-11-25T11:54:17.581Z,14.07
2022-11-25T11:56:55.094Z,12.88
2022-11-25T11:59:34.802Z,14.15
2022-11-25T12:02:26.285Z,12.20
2022-11-25T12:05:18.860Z,11.77
2022-11-25T12:07:52.121Z,11.35
2022-11-25T12:10:27.541Z,11.65
2022-11-25T12:13:15.491Z,12.52
2022-11-25T12:15:53.152Z,14.25
2022-11-25T12:18:29.651Z,10.73
2022-11-25T12:21:05.432Z,11.50
2022-11-25T12:24:04.671Z,11.40
2022-11-25T12:26:40.613Z,11.23
2022-11-25T12:29:16.242Z,14.77
2022-11-25T12:31:52.399Z,9.82
2022-11-25T12:34:46.470Z,12.13
2022-11-25T12:37:27.470Z,10.32
2022-11-25T12:40:07.930Z,13.55
2022-11-25T12:42:39.453Z,10.02
2022-11-25T12:45:27.320Z,13.85
2022-11-25T12:47:54.921Z,12.35
2022-11-25T12:50:52.781Z,13.07
2022-11-25T12:53:43.630Z,11.02
2022-11-25T12:56:20.453Z,12.95
2022-11-25T12:59:33.161Z,9.82
2022-11-25T13:02:24.554Z,12.93
2022-11-25T13:05:39.079Z,11.05
2022-11-25T13:08:35.201Z,8.57
2022-11-25T13:11:20.985Z,12.88
2022-11-25T13:14:26.861Z,10.35
2022-11-25T13:16:57.707Z,10.52
2022-11-25T13:19:25.662Z,11.00
2022-11-25T13:22:06.535Z,11.02
2022-11-25T13:24:42.311Z,12.57
2022-11-25T13:27:33.790Z,10.55
2022-11-25T13:30:02.043Z,12.98
2022-11-25T13:32:34.029Z,12.27
2022-11-25T13:35:24.734Z,16.92
2022-11-25T13:37:52.990Z,17.30
2022-11-25T13:40:23.482Z,9.77
2022-11-25T13:42:52.333Z,12.05
2022-11-25T13:45:28.797Z,10.10
2022-11-25T13:48:06.953Z,12.35
2022-11-25T13:50:55.269Z,12.25
2022-11-25T13:53:33.697Z,10.32
2022-11-25T13:56:30.081Z,11.45
2022-11-25T13:59:12.530Z,9.25
2022-11-25T14:01:46.224Z,10.93
2022-11-25T14:07:20.313Z,16.70
2022-11-25T14:10:10.691Z,13.38
2022-11-25T14:12:50.373Z,10.65
2022-11-25T14:18:44.773Z,14.20
2022-11-25T14:21:37.910Z,13.45
2022-11-25T14:24:15.670Z,13.85
2022-11-25T14:26:50.143Z,13.57
2022-11-25T14:29:33.211Z,15.20
2022-11-25T14:32:14.890Z,17.08
2022-11-25T14:35:00.214Z,16.17
2022-11-25T14:37:48.161Z,14.57
2022-11-25T14:40:30.664Z,12.80
2022-11-25T14:43:15.901Z,14.07
2022-11-25T14:45:43.626Z,10.90
2022-11-25T14:48:22.852Z,14.63
2022-11-25T14:51:07.330Z,12.00
2022-11-25T14:53:47.285Z,11.63
2022-11-25T14:56:30.819Z,16.33
2022-11-25T14:58:59.550Z,15.85
2022-11-25T15:01:32.290Z,11.57
2022-11-25T15:04:22.318Z,13.17
2022-11-25T15:06:57.191Z,15.00
2022-11-25T15:09:30.921Z,15.93
2022-11-25T15:14:32.530Z,12.65
2022-11-25T15:17:01.505Z,9.98
2022-11-25T15:19:35.046Z,13.27
2022-11-25T15:24:55.890Z,46.58
2022-11-25T15:27:26.836Z,11.70
2022-11-25T15:29:56.684Z,14.02
2022-11-25T15:32:30.216Z,13.50
2022-11-25T15:35:00.630Z,12.35
2022-11-25T15:37:29.012Z,13.68
2022-11-25T15:40:31.366Z,15.15
2022-11-25T15:43:01.436Z,11.07
2022-11-25T15:45:37.740Z,11.95
2022-11-25T15:48:05.570Z,14.23
2022-11-25T15:50:35.430Z,12.38
2022-11-25T15:53:03.170Z,13.77
2022-11-25T15:55:41.072Z,14.43
2022-11-25T15:58:16.331Z,10.32
2022-11-25T16:01:01.203Z,8.68
2022-11-25T16:03:31.842Z,9.77
2022-11-25T16:06:00.392Z,8.52
2022-11-25T16:08:37.022Z,12.27
2022-11-25T16:11:17.391Z,8.10
2022-11-25T16:13:45.920Z,12.57
2022-11-25T16:16:19.547Z,9.10
2022-11-25T16:21:40.906Z,17.25
2022-11-25T16:24:40.901Z,10.40
2022-11-25T16:27:20.567Z,12.82
2022-11-25T16:30:20.431Z,13.40
2022-11-25T16:32:47.814Z,12.88
2022-11-25T16:35:18.595Z,9.63
2022-11-25T16:37:49.292Z,12.50
2022-11-25T16:40:18.441Z,14.05
2022-11-25T16:42:48.905Z,10.73
2022-11-25T16:45:24.006Z,10.95
2022-11-25T16:47:52.051Z,8.32
2022-11-25T16:50:20.252Z,10.13
2022-11-25T16:52:47.720Z,11.07
2022-11-25T16:55:15.241Z,8.07
2022-11-25T16:57:43.356Z,9.48
2022-11-25T17:02:58.223Z,7.57
2022-11-25T17:05:27.135Z,9.45
2022-11-25T17:07:54.566Z,11.35
2022-11-25T17:10:22.095Z,10.13
2022-11-25T17:12:50.334Z,9.48
2022-11-25T17:15:29.508Z,11.38
2022-11-25T17:17:57.399Z,11.25
2022-11-25T17:20:25.285Z,7.97
2022-11-25T17:22:54.005Z,8.93
2022-11-25T17:25:23.635Z,10.23
2022-11-25T17:27:51.755Z,8.95
2022-11-25T17:30:24.626Z,10.82
2022-11-25T17:32:58.345Z,14.47
2022-11-25T17:35:25.680Z,15.30
2022-11-25T17:37:52.915Z,13.38
2022-11-25T17:40:20.285Z,13.38
2022-11-25T17:42:50.065Z,8.95
2022-11-25T17:45:20.625Z,8.10
2022-11-25T17:47:48.515Z,12.82
2022-11-25T17:50:22.698Z,15.80
2022-11-25T17:52:50.498Z,28.75
2022-11-25T17:55:19.941Z,30.63
2022-11-25T17:57:48.734Z,25.00
2022-11-25T18:00:19.547Z,22.73
2022-11-25T18:02:47.350Z,22.60
2022-11-25T18:05:17.823Z,19.52
2022-11-25T18:07:45.235Z,21.17
2022-11-25T18:14:01.564Z,21.33
2022-11-25T18:17:25.145Z,16.80
2022-11-25T18:20:04.286Z,13.70
2022-11-25T18:22:50.317Z,14.30
2022-11-25T18:25:20.877Z,13.77
2022-11-25T18:27:49.355Z,13.57
2022-11-25T18:30:37.220Z,12.73
2022-11-25T18:33:27.415Z,10.50
2022-11-25T18:36:03.905Z,11.90
2022-11-25T18:43:17.615Z,12.82
2022-11-25T18:46:09.260Z,14.27
2022-11-25T18:49:29.917Z,13.27
2022-11-25T18:52:02.995Z,12.23
2022-11-25T18:54:54.756Z,11.02
2022-11-25T18:57:36.806Z,8.05
2022-11-25T19:00:44.979Z,11.07
2022-11-25T19:10:49.466Z,11.57
2022-11-25T19:13:22.362Z,11.23
2022-11-25T19:15:49.601Z,9.25
2022-11-25T19:18:29.674Z,8.93
2022-11-25T19:20:59.887Z,6.68
2022-11-25T19:23:36.232Z,7.95
2022-11-25T19:26:11.532Z,8.30
2022-11-25T19:28:51.659Z,9.10
2022-11-25T19:31:25.039Z,7.45
2022-11-25T19:34:07.563Z,14.82
2022-11-25T19:36:43.642Z,11.68
2022-11-25T19:39:18.414Z,11.45
2022-11-25T19:41:46.942Z,10.98
2022-11-25T19:44:14.622Z,12.88
2022-11-25T19:47:13.856Z,12.98
2022-11-25T19:49:34.332Z,16.65
2022-11-25T19:52:01.601Z,14.98
2022-11-25T19:54:29.623Z,14.32
2022-11-25T19:56:59.541Z,16.73
2022-11-25T19:59:29.831Z,19.90
2022-11-25T20:01:57.099Z,14.60
2022-11-25T20:04:24.361Z,19.00
2022-11-25T20:06:51.511Z,15.23
2022-11-25T20:09:18.780Z,12.18
2022-11-25T20:11:45.977Z,21.45
2022-11-25T20:14:13.235Z,15.18
2022-11-25T20:16:41.855Z,27.70
2022-11-25T20:19:16.541Z,39.45
2022-11-25T20:21:45.821Z,42.60
2022-11-25T20:24:16.752Z,39.45
2022-11-25T20:26:48.616Z,17.35
2022-11-25T20:29:19.241Z,19.33
2022-11-25T20:31:47.331Z,14.27
2022-11-25T20:34:15.062Z,14.52
2022-11-25T20:36:44.123Z,15.73
2022-11-25T20:39:19.102Z,15.95
2022-11-25T20:41:51.900Z,20.95
2022-11-25T20:44:20.370Z,19.27
2022-11-25T20:46:48.299Z,14.43
2022-11-25T20:49:29.541Z,15.68
2022-11-25T20:51:57.482Z,17.20
2022-11-25T20:54:24.861Z,16.92
2022-11-25T20:56:52.121Z,14.25
2022-11-25T20:59:23.841Z,20.00
2022-11-25T21:01:51.994Z,22.15
2022-11-25T21:04:19.482Z,17.40
2022-11-25T21:06:47.122Z,18.27
2022-11-25T21:09:19.551Z,13.02
2022-11-25T21:11:48.082Z,18.52
2022-11-25T21:14:19.913Z,11.55
2022-11-25T21:16:48.164Z,14.50
2022-11-25T21:19:15.760Z,13.88
2022-11-25T21:21:46.172Z,16.50
2022-11-25T21:24:33.270Z,14.13
2022-11-25T21:27:04.361Z,20.10
2022-11-25T21:29:32.375Z,18.90
2022-11-25T21:31:59.641Z,18.48
2022-11-25T21:34:26.980Z,16.33
2022-11-25T21:36:54.828Z,19.15
2022-11-25T21:39:34.154Z,16.58
2022-11-25T21:42:05.181Z,16.20
2022-11-25T21:44:39.828Z,14.20
2022-11-25T21:47:18.901Z,15.38
2022-11-25T21:49:46.732Z,16.20
2022-11-25T21:52:14.971Z,18.33
2022-11-25T21:54:43.470Z,16.75
2022-11-25T21:57:28.062Z,16.92
2022-11-25T21:59:55.638Z,16.80
2022-11-25T22:02:24.624Z,14.10
2022-11-25T22:04:52.431Z,18.10
2022-11-25T22:07:19.609Z,21.52
2022-11-25T22:09:47.042Z,19.20
2022-11-25T22:12:30.806Z,13.38
2022-11-25T22:14:59.679Z,17.17
2022-11-25T22:17:27.511Z,19.02
2022-11-25T22:19:54.884Z,16.65
2022-11-25T22:22:22.062Z,19.10
2022-11-25T22:24:49.260Z,17.33
2022-11-25T22:27:23.400Z,17.13
2022-11-25T22:29:51.121Z,18.08
2022-11-25T22:32:18.921Z,22.65
2022-11-25T22:34:46.624Z,19.83
2022-11-25T22:37:22.481Z,18.45
2022-11-25T22:39:50.191Z,20.48
2022-11-25T22:42:27.901Z,22.80
2022-11-25T22:44:57.471Z,18.10
2022-11-25T22:47:30.383Z,19.13
2022-11-25T22:49:57.784Z,27.70
2022-11-25T22:52:36.247Z,17.08
2022-11-25T22:55:30.640Z,18.98
2022-11-25T22:58:00.103Z,22.77
2022-11-25T23:00:31.217Z,21.10
2022-11-25T23:03:00.301Z,23.55
2022-11-25T23:05:32.549Z,19.63
2022-11-25T23:08:09.396Z,16.88
2022-11-25T23:10:36.644Z,20.63
2022-11-25T23:13:03.877Z,21.25
2022-11-25T23:15:31.315Z,26.95
2022-11-25T23:18:01.212Z,19.23
2022-11-25T23:20:34.114Z,21.77
2022-11-25T23:23:30.724Z,18.05
2022-11-25T23:25:58.807Z,21.27
2022-11-25T23:28:26.105Z,25.50
2022-11-25T23:30:59.045Z,22.42
2022-11-25T23:33:39.896Z,22.83
2022-11-25T23:36:25.727Z,21.73
2022-11-25T23:38:59.776Z,27.63
2022-11-25T23:41:30.746Z,20.35
2022-11-25T23:44:06.237Z,23.63
2022-11-25T23:46:35.915Z,19.42
2022-11-25T23:49:04.154Z,17.35
2022-11-25T23:51:31.415Z,20.45
2022-11-25T23:53:59.305Z,19.00
2022-11-25T23:56:27.961Z,18.83
2022-11-25T23:58:55.126Z,17.20
